createdAt,value
2019-03-12T00:00:04.504Z,2.73
2019-03-12T00:02:31.751Z,2.40
2019-03-12T00:04:59.034Z,2.83
2019-03-12T00:07:26.330Z,2.87
2019-03-12T00:09:53.961Z,3.03
2019-03-12T00:12:21.359Z,2.80
2019-03-12T00:14:48.601Z,2.60
2019-03-12T00:17:15.895Z,2.70
2019-03-12T00:19:43.139Z,2.40
2019-03-12T00:22:10.390Z,2.50
2019-03-12T00:24:37.720Z,2.57
2019-03-12T00:27:04.950Z,2.40
2019-03-12T00:29:32.207Z,3.00
2019-03-12T00:31:59.493Z,2.30
2019-03-12T00:34:26.738Z,2.63
2019-03-12T00:36:54.023Z,2.70
2019-03-12T00:39:21.279Z,3.93
2019-03-12T00:41:48.517Z,2.33
2019-03-12T00:44:15.808Z,2.97
2019-03-12T00:46:43.104Z,3.20
2019-03-12T00:49:10.386Z,2.33
2019-03-12T00:51:37.665Z,2.20
2019-03-12T00:54:04.990Z,3.00
2019-03-12T00:56:32.321Z,2.63
2019-03-12T00:58:59.565Z,3.57
2019-03-12T01:01:26.862Z,2.03
2019-03-12T01:03:54.123Z,2.70
2019-03-12T01:06:21.354Z,3.03
2019-03-12T01:08:48.652Z,2.67
2019-03-12T01:11:15.932Z,3.27
2019-03-12T01:13:43.229Z,2.33
2019-03-12T01:16:10.461Z,2.47
2019-03-12T01:18:37.697Z,3.03
2019-03-12T01:21:04.972Z,2.70
2019-03-12T01:23:32.242Z,3.37
2019-03-12T01:25:59.540Z,2.57
2019-03-12T01:28:26.801Z,3.00
2019-03-12T01:30:54.056Z,2.53
2019-03-12T01:33:21.353Z,2.50
2019-03-12T01:35:48.604Z,1.97
2019-03-12T01:38:15.921Z,2.53
2019-03-12T01:40:43.232Z,3.20
2019-03-12T01:43:10.472Z,3.17
2019-03-12T01:45:37.726Z,1.90
2019-03-12T01:48:05.036Z,2.80
2019-03-12T01:50:32.298Z,2.40
2019-03-12T01:52:59.541Z,2.57
2019-03-12T01:55:26.837Z,3.10
2019-03-12T01:57:54.089Z,3.10
2019-03-12T02:00:21.333Z,3.53
2019-03-12T02:02:48.598Z,3.10
2019-03-12T02:05:15.853Z,2.87
2019-03-12T02:07:43.239Z,2.30
2019-03-12T02:10:10.818Z,2.90
2019-03-12T02:12:38.144Z,3.10
2019-03-12T02:15:06.628Z,2.60
2019-03-12T02:17:33.894Z,2.70
2019-03-12T02:20:01.255Z,3.00
2019-03-12T02:22:28.546Z,3.10
2019-03-12T02:24:55.822Z,2.93
2019-03-12T02:27:23.087Z,2.33
2019-03-12T02:29:50.347Z,2.90
2019-03-12T02:32:17.614Z,3.33
2019-03-12T02:34:44.873Z,2.93
2019-03-12T02:37:12.322Z,2.80
2019-03-12T02:39:39.604Z,3.00
2019-03-12T02:42:06.887Z,2.53
2019-03-12T02:44:34.209Z,3.07
2019-03-12T02:47:01.465Z,2.80
2019-03-12T02:49:28.767Z,3.07
2019-03-12T02:51:56.022Z,2.47
2019-03-12T02:54:23.311Z,2.43
2019-03-12T02:56:50.584Z,3.07
2019-03-12T02:59:17.874Z,2.40
2019-03-12T03:01:45.132Z,2.70
2019-03-12T03:04:12.395Z,2.77
2019-03-12T03:06:57.145Z,2.87
2019-03-12T03:09:24.437Z,3.47
2019-03-12T03:11:51.757Z,2.93
2019-03-12T03:14:47.822Z,2.73
2019-03-12T03:17:15.844Z,2.83
2019-03-12T03:19:43.083Z,3.33
2019-03-12T03:22:10.358Z,2.97
2019-03-12T03:24:37.592Z,3.10
2019-03-12T03:27:04.820Z,2.63
2019-03-12T03:29:32.083Z,3.50
2019-03-12T03:31:59.327Z,3.30
2019-03-12T03:34:28.156Z,2.57
2019-03-12T03:36:55.833Z,3.00
2019-03-12T03:39:23.401Z,2.97
2019-03-12T03:41:50.667Z,3.43
2019-03-12T03:44:17.977Z,2.97
2019-03-12T03:46:45.308Z,3.37
2019-03-12T03:49:12.595Z,2.87
2019-03-12T03:51:39.843Z,3.63
2019-03-12T03:54:07.094Z,3.03
2019-03-12T03:56:34.390Z,3.87
2019-03-12T03:59:01.688Z,3.70
2019-03-12T04:01:29.268Z,3.63
2019-03-12T04:03:56.555Z,3.83
2019-03-12T04:06:23.817Z,3.53
2019-03-12T04:08:51.152Z,3.80
2019-03-12T04:11:18.405Z,4.10
2019-03-12T04:13:45.647Z,3.93
2019-03-12T04:16:12.958Z,4.10
2019-03-12T04:18:40.211Z,3.83
2019-03-12T04:21:07.500Z,3.33
2019-03-12T04:23:34.766Z,4.00
2019-03-12T04:26:02.106Z,3.80
2019-03-12T04:28:29.402Z,3.87
2019-03-12T04:30:56.657Z,4.60
2019-03-12T04:34:07.923Z,4.43
2019-03-12T04:36:35.300Z,4.70
2019-03-12T04:39:04.351Z,5.13
2019-03-12T04:41:31.633Z,4.50
2019-03-12T04:43:58.895Z,4.60
2019-03-12T04:46:26.206Z,4.87
2019-03-12T04:48:53.522Z,5.00
2019-03-12T04:51:20.792Z,5.87
2019-03-12T04:53:48.071Z,5.40
2019-03-12T04:56:15.392Z,6.13
2019-03-12T04:58:42.742Z,5.60
2019-03-12T05:01:09.985Z,6.03
2019-03-12T05:03:37.309Z,5.53
2019-03-12T05:06:04.575Z,5.57
2019-03-12T05:08:31.838Z,5.80
2019-03-12T05:10:59.160Z,6.33
2019-03-12T05:13:26.449Z,6.37
2019-03-12T05:15:53.714Z,6.27
2019-03-12T05:18:21.299Z,6.80
2019-03-12T05:20:49.425Z,6.43
2019-03-12T05:23:16.777Z,5.90
2019-03-12T05:25:44.053Z,5.80
2019-03-12T05:28:11.307Z,6.23
2019-03-12T05:30:38.618Z,6.43
2019-03-12T05:33:05.874Z,6.57
2019-03-12T05:35:33.160Z,5.90
2019-03-12T05:38:00.414Z,6.60
2019-03-12T05:40:27.674Z,5.83
2019-03-12T05:42:54.950Z,6.27
2019-03-12T05:45:22.286Z,6.30
2019-03-12T05:47:49.563Z,6.23
2019-03-12T05:50:16.808Z,6.37
2019-03-12T05:52:44.056Z,6.17
2019-03-12T05:55:13.228Z,6.97
2019-03-12T05:57:40.649Z,6.60
2019-03-12T06:00:09.449Z,6.47
2019-03-12T06:02:36.749Z,7.00
2019-03-12T06:05:04.486Z,7.10
2019-03-12T06:07:31.814Z,8.73
2019-03-12T06:09:59.080Z,7.40
2019-03-12T06:12:26.322Z,8.27
2019-03-12T06:14:53.619Z,7.57
2019-03-12T06:17:20.876Z,7.47
2019-03-12T06:19:48.181Z,8.43
2019-03-12T06:22:15.470Z,8.00
2019-03-12T06:24:42.705Z,8.20
2019-03-12T06:27:10.014Z,8.30
2019-03-12T06:29:37.272Z,8.60
2019-03-12T06:32:39.264Z,8.73
2019-03-12T06:35:13.795Z,8.70
2019-03-12T06:37:49.099Z,7.93
2019-03-12T06:40:44.768Z,9.60
2019-03-12T06:43:17.659Z,9.80
2019-03-12T06:46:03.929Z,9.30
2019-03-12T06:48:50.626Z,8.37
2019-03-12T06:51:43.039Z,8.00
2019-03-12T06:54:44.996Z,7.53
2019-03-12T06:57:32.603Z,10.27
2019-03-12T07:00:11.397Z,9.97
2019-03-12T07:03:13.352Z,9.63
2019-03-12T07:06:12.489Z,10.03
2019-03-12T07:09:05.412Z,9.67
2019-03-12T07:11:39.442Z,9.90
2019-03-12T07:14:22.934Z,9.80
2019-03-12T07:16:57.205Z,10.20
2019-03-12T07:19:55.351Z,10.03
2019-03-12T07:22:48.334Z,8.17
2019-03-12T07:25:37.773Z,8.33
2019-03-12T07:28:27.431Z,8.00
2019-03-12T07:31:06.662Z,7.20
2019-03-12T07:33:52.116Z,6.00
2019-03-12T07:36:38.895Z,7.13
2019-03-12T07:39:44.192Z,6.33
2019-03-12T07:42:29.687Z,6.80
2019-03-12T07:45:15.485Z,6.20
2019-03-12T07:48:20.361Z,6.53
2019-03-12T07:51:10.222Z,6.63
2019-03-12T07:53:59.779Z,7.17
2019-03-12T07:56:41.056Z,6.20
2019-03-12T07:59:35.085Z,6.83
2019-03-12T08:02:24.911Z,5.83
2019-03-12T08:05:20.745Z,5.50
2019-03-12T08:08:05.841Z,5.37
2019-03-12T08:10:55.477Z,6.00
2019-03-12T08:13:40.878Z,4.90
2019-03-12T08:16:33.376Z,4.80
2019-03-12T08:19:18.277Z,4.27
2019-03-12T08:21:57.650Z,5.17
2019-03-12T08:24:35.660Z,4.97
2019-03-12T08:27:21.356Z,4.70
2019-03-12T08:30:06.726Z,4.63
2019-03-12T08:32:56.161Z,4.67
2019-03-12T08:35:35.141Z,4.70
2019-03-12T08:38:21.949Z,4.17
2019-03-12T08:41:11.627Z,4.10
2019-03-12T08:43:56.415Z,4.40
2019-03-12T08:46:37.648Z,4.60
2019-03-12T08:49:14.290Z,3.80
2019-03-12T08:52:03.719Z,4.10
2019-03-12T08:54:53.466Z,5.20
2019-03-12T08:57:48.076Z,4.50
2019-03-12T09:00:28.613Z,4.93
2019-03-12T09:03:07.605Z,4.73
2019-03-12T09:06:00.238Z,4.93
2019-03-12T09:08:46.215Z,4.43
2019-03-12T09:11:33.056Z,4.43
2019-03-12T09:14:18.640Z,4.67
2019-03-12T09:17:00.162Z,4.57
2019-03-12T09:19:49.804Z,4.07
2019-03-12T09:22:35.077Z,4.60
2019-03-12T09:25:22.767Z,4.47
2019-03-12T09:28:13.854Z,4.30
2019-03-12T09:31:03.190Z,4.00
2019-03-12T09:33:45.386Z,4.73
2019-03-12T09:36:21.388Z,3.90
2019-03-12T09:38:59.359Z,4.40
2019-03-12T09:41:37.024Z,3.80
2019-03-12T09:44:26.428Z,3.70
2019-03-12T09:47:02.490Z,4.00
2019-03-12T09:49:43.971Z,3.23
2019-03-12T09:52:25.888Z,3.57
2019-03-12T09:55:04.871Z,3.43
2019-03-12T09:57:45.597Z,3.10
2019-03-12T10:00:24.886Z,3.67
2019-03-12T10:03:09.402Z,3.33
2019-03-12T10:05:59.115Z,4.23
2019-03-12T10:08:50.622Z,4.00
2019-03-12T10:11:31.752Z,3.23
2019-03-12T10:14:17.126Z,3.63
2019-03-12T10:17:00.554Z,3.57
2019-03-12T10:19:53.326Z,3.20
2019-03-12T10:22:46.091Z,3.17
2019-03-12T10:25:35.750Z,2.97
2019-03-12T10:28:21.440Z,3.13
2019-03-12T10:31:10.981Z,3.13
2019-03-12T10:34:06.760Z,3.40
2019-03-12T10:36:47.982Z,2.90
2019-03-12T10:40:19.988Z,3.33
2019-03-12T10:43:15.293Z,3.27
2019-03-12T10:46:04.738Z,2.27
2019-03-12T11:16:26.745Z,3.20
2019-03-12T11:18:55.140Z,2.97
2019-03-12T11:21:23.942Z,2.90
2019-03-12T11:23:54.086Z,3.13
2019-03-12T11:26:21.502Z,3.83
2019-03-12T11:28:48.865Z,3.50
2019-03-12T11:31:16.115Z,2.93
2019-03-12T11:33:49.263Z,3.13
2019-03-12T11:36:16.534Z,3.10
2019-03-12T11:38:44.184Z,3.13
2019-03-12T11:41:11.495Z,2.70
2019-03-12T11:43:38.783Z,2.67
2019-03-12T11:46:06.098Z,2.60
2019-03-12T11:48:33.357Z,2.97
2019-03-12T11:51:00.741Z,2.90
2019-03-12T11:53:28.218Z,2.97
2019-03-12T11:55:55.495Z,2.80
2019-03-12T11:58:22.779Z,3.07
2019-03-12T12:00:55.893Z,3.53
2019-03-12T12:03:23.275Z,2.53
2019-03-12T12:05:50.515Z,3.30
2019-03-12T12:08:17.852Z,2.50
2019-03-12T12:10:45.079Z,2.63
2019-03-12T12:13:12.352Z,2.80
2019-03-12T12:15:39.665Z,2.77
2019-03-12T12:18:07.121Z,2.93
2019-03-12T12:20:34.374Z,3.10
2019-03-12T12:23:02.059Z,2.70
2019-03-12T12:25:29.344Z,2.83
2019-03-12T12:27:56.596Z,3.10
2019-03-12T12:30:24.129Z,2.80
2019-03-12T12:32:51.577Z,2.70
2019-03-12T12:35:18.978Z,3.07
2019-03-12T12:37:46.263Z,2.77
2019-03-12T12:40:14.302Z,2.80
2019-03-12T12:42:41.635Z,2.43
2019-03-12T12:45:11.764Z,3.03
2019-03-12T12:47:39.051Z,3.03
2019-03-12T12:50:06.633Z,2.50
2019-03-12T12:52:33.916Z,2.67
2019-03-12T12:55:01.162Z,2.63
2019-03-12T12:57:28.510Z,2.67
2019-03-12T12:59:55.825Z,2.27
2019-03-12T13:02:23.115Z,2.43
2019-03-12T13:04:50.465Z,2.70
2019-03-12T13:07:17.702Z,2.33
2019-03-12T13:09:44.971Z,2.67
2019-03-12T13:12:12.252Z,2.60
2019-03-12T13:14:41.766Z,2.80
2019-03-12T13:17:08.832Z,2.67
2019-03-12T13:19:36.227Z,2.77
2019-03-12T13:22:03.612Z,2.80
2019-03-12T13:24:30.964Z,2.50
2019-03-12T13:26:58.200Z,3.00
2019-03-12T13:29:25.540Z,2.80
2019-03-12T13:31:52.887Z,3.17
2019-03-12T13:34:20.159Z,2.73
2019-03-12T13:36:47.510Z,2.50
2019-03-12T13:39:14.968Z,2.83
2019-03-12T13:41:42.215Z,2.57
2019-03-12T13:44:09.553Z,2.63
2019-03-12T13:46:36.894Z,2.70
2019-03-12T13:49:04.294Z,2.67
2019-03-12T13:51:31.728Z,2.63
2019-03-12T13:53:59.053Z,2.60
2019-03-12T13:56:26.348Z,2.40
2019-03-12T13:58:53.608Z,2.67
2019-03-12T14:01:20.881Z,2.60
2019-03-12T14:03:48.167Z,2.57
2019-03-12T14:06:15.470Z,2.60
2019-03-12T14:08:42.749Z,2.70
2019-03-12T14:11:10.049Z,2.60
2019-03-12T14:13:37.352Z,2.40
2019-03-12T14:16:04.788Z,2.50
2019-03-12T14:18:32.147Z,2.43
2019-03-12T14:21:02.993Z,2.40
2019-03-12T14:23:33.528Z,2.17
2019-03-12T14:26:00.917Z,2.43
2019-03-12T14:28:28.363Z,2.53
2019-03-12T14:30:55.885Z,2.30
2019-03-12T14:33:23.189Z,2.23
2019-03-12T14:35:52.259Z,2.30
2019-03-12T14:38:19.972Z,1.97
2019-03-12T14:40:47.290Z,2.57
2019-03-12T14:43:14.688Z,2.57
2019-03-12T14:45:48.758Z,2.30
2019-03-12T14:48:41.438Z,2.13
2019-03-12T14:51:21.651Z,2.50
2019-03-12T14:53:49.966Z,2.40
2019-03-12T14:56:17.405Z,2.37
2019-03-12T14:58:44.840Z,2.63
2019-03-12T15:01:12.189Z,2.40
2019-03-12T15:03:39.470Z,2.23
2019-03-12T15:06:06.950Z,2.30
2019-03-12T15:08:34.214Z,1.97
2019-03-12T15:11:01.627Z,1.90
2019-03-12T15:13:28.966Z,2.43
2019-03-12T15:15:56.336Z,2.10
2019-03-12T15:18:23.640Z,2.00
2019-03-12T15:20:50.964Z,2.60
2019-03-12T15:23:18.223Z,2.60
2019-03-12T15:25:45.478Z,3.07
2019-03-12T15:28:12.821Z,2.90
2019-03-12T15:30:40.214Z,2.43
2019-03-12T15:33:07.464Z,1.90
2019-03-12T15:35:34.884Z,2.77
2019-03-12T15:38:02.228Z,2.17
2019-03-12T15:40:29.537Z,2.40
2019-03-12T15:42:57.210Z,2.70
2019-03-12T15:45:24.512Z,2.70
2019-03-12T15:47:51.822Z,2.70
2019-03-12T15:50:19.318Z,2.50
2019-03-12T15:52:46.582Z,2.40
2019-03-12T15:55:13.827Z,2.87
2019-03-12T15:57:41.127Z,2.70
2019-03-12T16:00:08.833Z,3.00
2019-03-12T16:02:36.241Z,2.80
2019-03-12T16:05:04.151Z,3.53
2019-03-12T16:07:31.466Z,2.60
2019-03-12T16:09:59.443Z,2.80
2019-03-12T16:12:26.762Z,2.13
2019-03-12T16:14:54.050Z,2.70
2019-03-12T16:17:21.524Z,2.80
2019-03-12T16:19:48.782Z,2.80
2019-03-12T16:22:16.059Z,2.50
2019-03-12T16:24:43.342Z,2.33
2019-03-12T16:27:10.603Z,2.30
2019-03-12T16:29:37.871Z,2.70
2019-03-12T16:32:05.186Z,2.47
2019-03-12T16:34:32.442Z,2.77
2019-03-12T16:36:59.754Z,2.70
2019-03-12T16:39:27.007Z,2.53
2019-03-12T16:41:54.245Z,2.20
2019-03-12T16:44:21.553Z,2.60
2019-03-12T16:46:48.930Z,2.60
2019-03-12T16:49:16.204Z,2.30
2019-03-12T16:51:43.995Z,2.50
2019-03-12T16:54:13.379Z,2.17
2019-03-12T16:56:45.469Z,2.47
2019-03-12T16:59:09.860Z,2.20
2019-03-12T17:01:37.326Z,2.50
2019-03-12T17:04:04.620Z,2.57
2019-03-12T17:06:31.884Z,2.10
2019-03-12T17:08:59.555Z,2.30
2019-03-12T17:11:26.834Z,2.47
2019-03-12T17:13:54.117Z,2.40
2019-03-12T17:16:23.842Z,2.23
2019-03-12T17:19:02.326Z,2.33
2019-03-12T17:21:32.628Z,2.03
2019-03-12T17:23:58.912Z,2.33
2019-03-12T17:26:26.185Z,2.40
2019-03-12T17:28:54.477Z,2.50
2019-03-12T17:31:21.777Z,2.80
2019-03-12T17:33:49.107Z,2.50
2019-03-12T17:36:16.409Z,2.20
2019-03-12T17:38:46.807Z,2.30
2019-03-12T17:41:13.845Z,2.80
2019-03-12T17:43:41.101Z,2.37
2019-03-12T17:46:12.155Z,2.50
2019-03-12T17:48:39.503Z,2.60
2019-03-12T17:51:06.912Z,2.57
2019-03-12T17:53:34.196Z,2.37
2019-03-12T17:56:01.502Z,2.20
2019-03-12T17:58:28.955Z,2.53
2019-03-12T18:00:56.243Z,2.70
2019-03-12T18:03:23.478Z,2.27
2019-03-12T18:05:50.780Z,2.53
2019-03-12T18:08:18.074Z,2.40
2019-03-12T18:10:45.961Z,2.70
2019-03-12T18:13:13.316Z,2.87
2019-03-12T18:15:40.747Z,2.60
2019-03-12T18:18:08.051Z,2.70
2019-03-12T18:20:35.884Z,2.63
2019-03-12T18:23:03.143Z,3.13
2019-03-12T18:25:30.535Z,2.87
2019-03-12T18:27:57.957Z,2.33
2019-03-12T18:30:25.207Z,2.90
2019-03-12T18:32:52.680Z,2.97
2019-03-12T18:35:20.001Z,3.43
2019-03-12T18:37:47.253Z,2.73
2019-03-12T18:40:16.233Z,2.93
2019-03-12T18:42:43.503Z,3.30
2019-03-12T18:45:13.423Z,3.00
2019-03-12T18:47:40.983Z,3.30
2019-03-12T18:50:09.578Z,3.83
2019-03-12T18:52:36.832Z,3.13
2019-03-12T18:55:04.721Z,2.97
2019-03-12T18:57:32.037Z,2.63
2019-03-12T18:59:59.709Z,2.90
2019-03-12T19:02:26.963Z,2.93
2019-03-12T19:04:54.887Z,3.27
2019-03-12T19:07:22.144Z,3.00
2019-03-12T19:09:49.475Z,3.40
2019-03-12T19:12:16.750Z,3.53
2019-03-12T19:14:44.005Z,3.70
2019-03-12T19:17:14.125Z,3.10
2019-03-12T19:19:41.495Z,3.10
2019-03-12T19:22:09.082Z,3.13
2019-03-12T19:24:36.401Z,3.60
2019-03-12T19:27:04.222Z,3.20
2019-03-12T19:29:31.556Z,3.47
2019-03-12T19:32:11.877Z,2.90
2019-03-12T19:34:39.272Z,3.20
2019-03-12T19:37:06.653Z,3.20
2019-03-12T19:39:34.778Z,3.57
2019-03-12T19:42:02.292Z,3.90
2019-03-12T19:44:32.462Z,3.97
2019-03-12T19:46:59.865Z,3.37
2019-03-12T19:49:27.120Z,3.10
2019-03-12T19:51:54.381Z,4.00
2019-03-12T19:54:21.756Z,3.43
2019-03-12T19:56:49.026Z,3.80
2019-03-12T19:59:16.282Z,4.10
2019-03-12T20:01:44.541Z,3.43
2019-03-12T20:04:12.000Z,3.70
2019-03-12T20:06:39.563Z,3.50
2019-03-12T20:09:13.538Z,0.90
2019-03-12T20:12:08.612Z,1.30
2019-03-12T20:15:13.340Z,0.80
2019-03-12T20:18:25.739Z,1.03
2019-03-12T20:21:25.995Z,0.80
2019-03-12T20:24:40.264Z,0.80
2019-03-12T20:28:10.359Z,0.70
2019-03-12T20:31:14.035Z,0.77
2019-03-12T20:34:07.344Z,0.93
2019-03-12T20:37:34.363Z,0.70
2019-03-12T20:40:42.195Z,0.70
2019-03-12T20:43:45.721Z,0.60
2019-03-12T20:47:01.761Z,0.60
2019-03-12T20:50:29.111Z,0.70
2019-03-12T20:53:30.416Z,1.00
2019-03-12T20:56:34.522Z,1.63
2019-03-12T20:59:48.710Z,0.80
2019-03-12T21:03:09.051Z,0.97
2019-03-12T21:06:24.246Z,1.10
2019-03-12T21:09:31.997Z,1.00
2019-03-12T21:12:36.086Z,0.80
2019-03-12T21:15:34.330Z,0.80
2019-03-12T21:18:44.447Z,0.97
2019-03-12T21:22:04.731Z,1.20
2019-03-12T21:25:12.867Z,1.00
2019-03-12T21:28:32.404Z,1.00
2019-03-12T21:30:59.675Z,1.20
2019-03-12T21:33:26.916Z,1.20
2019-03-12T21:35:54.327Z,1.17
2019-03-12T21:38:21.611Z,1.00
2019-03-12T21:40:48.878Z,1.30
2019-03-12T21:43:16.189Z,1.00
2019-03-12T21:45:43.479Z,1.37
2019-03-12T21:48:10.834Z,0.90
2019-03-12T21:50:38.127Z,0.80
2019-03-12T21:53:05.564Z,1.30
2019-03-12T21:55:32.841Z,1.10
2019-03-12T21:58:00.084Z,1.10
2019-03-12T22:00:27.428Z,1.47
2019-03-12T22:02:54.666Z,1.37
2019-03-12T22:05:21.928Z,1.20
2019-03-12T22:07:49.237Z,1.20
2019-03-12T22:10:16.556Z,1.20
2019-03-12T22:12:43.875Z,1.47
2019-03-12T22:15:11.177Z,1.30
2019-03-12T22:17:38.517Z,1.20
2019-03-12T22:20:07.241Z,1.67
2019-03-12T22:22:39.135Z,1.83
2019-03-12T22:25:08.423Z,1.50
2019-03-12T22:27:35.722Z,1.40
2019-03-12T22:30:03.213Z,1.87
2019-03-12T22:32:30.495Z,1.90
2019-03-12T22:34:57.755Z,2.03
2019-03-12T22:37:25.143Z,2.37
2019-03-12T22:39:52.429Z,1.60
2019-03-12T22:42:19.710Z,2.27
2019-03-12T22:44:47.031Z,1.90
2019-03-12T22:47:14.298Z,2.20
2019-03-12T22:49:41.610Z,1.83
2019-03-12T22:52:08.849Z,1.87
2019-03-12T22:54:37.354Z,1.83
2019-03-12T22:57:04.643Z,1.50
2019-03-12T22:59:31.960Z,1.90
2019-03-12T23:01:59.256Z,2.30
2019-03-12T23:04:26.566Z,2.07
2019-03-12T23:06:53.910Z,2.13
2019-03-12T23:09:21.166Z,2.07
2019-03-12T23:11:48.475Z,2.40
2019-03-12T23:14:15.784Z,2.70
2019-03-12T23:16:43.145Z,2.60
2019-03-12T23:19:10.436Z,2.60
2019-03-12T23:21:37.756Z,4.30
2019-03-12T23:24:05.135Z,2.90
2019-03-12T23:26:32.460Z,2.93
2019-03-12T23:28:59.798Z,2.87
2019-03-12T23:31:27.049Z,2.30
2019-03-12T23:33:54.350Z,2.70
2019-03-12T23:36:21.627Z,3.10
2019-03-12T23:38:48.863Z,2.80
2019-03-12T23:41:16.206Z,3.03
2019-03-12T23:43:43.486Z,2.80
2019-03-12T23:46:10.762Z,2.73
2019-03-12T23:48:38.095Z,3.07
2019-03-12T23:51:05.494Z,3.57
2019-03-12T23:53:33.190Z,2.73
2019-03-12T23:56:00.452Z,2.23
2019-03-12T23:58:30.811Z,2.20
